Flight Track Log - Related Links

Times and Time Zones

All times are in EST time to prevent confusion due to time zone crossing. See the UAL395 flight status page for this flight to view local times or setup timezone preferences in your user account.

Time Position Orientation Groundspeed Altitude Reporting Facility
EST Latitude Longitude Course Direction KTS MPH feet Rate Location/Type
Mon 12:11:20 PM 26.0750 -80.1367 311° West 131 151 700  Level Miami Center
Mon 12:11:34 PM 26.0794 -80.1253 67° East 159 183 1,100 1,541 Climbing Miami Center
Mon 12:12:34 PM 26.0911 -80.0678 77° East 247 284 2,600 1,850 Climbing Miami Center
Mon 12:13:34 PM 26.1642 -80.0697 359° North 265 305 4,800 2,262 Climbing Miami Center
Mon 12:13:35 PM 26.1661 -80.0744 295° West 276 318 4,900 214 Climbing Miami Center
Mon 12:14:30 PM 26.2239 -80.1061 334° Northwest 275 316 5,000  Climbing Miami Center
Mon 12:14:34 PM 26.2300 -80.1086 340° North 268 308 4,900 2,250 Descending Miami Center
Mon 12:15:00 PM 26.6759 -80.2096 346° North  Level Estimated
Mon 12:15:34 PM 26.2897 -80.1589 323° Northwest 285 328 7,400  Level Miami Center
Mon 12:15:37 PM 26.2917 -80.1611 314° West 288 331 7,600 2,700 Climbing Miami Center
Mon 12:16:00 PM 26.7558 -80.3113 311° West  Level FlightAware Approximate
Mon 12:16:34 PM 26.3550 -80.2164 322° Northwest 314 361 10,100  Level Miami Center
Mon 12:17:34 PM 26.4286 -80.2833 321° Northwest 328 377 11,500 1,850 Climbing Miami Center
Mon 12:18:34 PM 26.5108 -80.3461 326° Northwest 352 405 13,800 2,150 Climbing Miami Center
Mon 12:19:34 PM 26.6122 -80.3792 344° North 363 418 15,800 1,900 Climbing Miami Center
Mon 12:20:34 PM 26.7136 -80.4172 341° North 384 442 17,600 1,700 Climbing Miami Center
Mon 12:21:34 PM 26.8236 -80.4531 344° North 391 450 19,200 1,650 Climbing Miami Center
Mon 12:22:34 PM 26.9311 -80.4914 342° North 397 457 20,900 1,450 Climbing Miami Center
Mon 12:23:34 PM 27.0450 -80.5297 343° North 411 473 22,100 1,350 Climbing Miami Center
Mon 12:24:34 PM 27.1608 -80.5708 342° North 422 486 23,600 1,600 Climbing Miami Center
Mon 12:25:34 PM 27.2767 -80.6119 342° North 428 493 25,300 1,450 Climbing Miami Center
Mon 12:26:34 PM 27.3947 -80.6533 343° North 433 498 26,500 1,150 Climbing Miami Center
Mon 12:27:34 PM 27.5147 -80.6947 343° North 438 504 27,600 1,200 Climbing Miami Center
Mon 12:28:34 PM 27.6367 -80.7361 343° North 443 510 28,900 1,500 Climbing Miami Center
Mon 12:29:34 PM 27.7547 -80.7778 343° North 443 510 30,600 1,550 Climbing Miami Center
Mon 12:30:34 PM 27.8725 -80.8194 343° North 443 510 32,000 1,150 Climbing Miami Center
Mon 12:31:34 PM 27.9861 -80.8586 343° North 437 503 32,900 450 Climbing Miami Center
Mon 12:32:34 PM 28.1039 -80.9006 343° North 431 496 32,900  Level Miami Center
Mon 12:33:34 PM 28.2175 -80.9397 343° North 431 496 32,900  Level Miami Center
Mon 12:34:34 PM 28.3333 -80.9817 342° North 436 502 32,900  Level Miami Center
Mon 12:35:34 PM 28.4511 -81.0239 343° North 436 502 32,900  Level Miami Center
Mon 12:36:34 PM 28.5667 -81.0661 342° North 436 502 32,900 50 Level Miami Center
Mon 12:37:34 PM 28.6800 -81.1106 341° North 436 502 33,000 42 Climbing Miami Center
Mon 12:38:57 PM 28.8353 -81.1506 347° North 437 503 33,000  Level Jacksonville Center
Mon 12:39:57 PM 28.9544 -81.1794 348° North 437 503 33,000  Level Jacksonville Center
Mon 12:40:57 PM 29.0781 -81.2058 349° North 437 503 33,000 -50 Level Jacksonville Center
Mon 12:41:57 PM 29.1994 -81.2369 347° North 437 503 32,900  Descending Jacksonville Center
Mon 12:42:57 PM 29.3189 -81.2658 348° North 431 496 33,000 50 Climbing Jacksonville Center
Mon 12:43:57 PM 29.4403 -81.2925 349° North 431 496 33,000 -50 Level Jacksonville Center
Mon 12:44:57 PM 29.5575 -81.3217 348° North 431 496 32,900 -50 Descending Jacksonville Center
Mon 12:45:57 PM 29.6789 -81.3508 348° North 431 496 32,900  Level Jacksonville Center
Mon 12:46:57 PM 29.8025 -81.3797 349° North 436 502 32,900  Level Jacksonville Center
Mon 12:47:57 PM 29.9239 -81.4117 347° North 436 502 32,900  Level Jacksonville Center
Mon 12:48:57 PM 30.0453 -81.4408 348° North 441 507 32,900 50 Level Jacksonville Center
Mon 12:49:57 PM 30.1667 -81.4678 349° North 441 507 33,000  Climbing Jacksonville Center
Mon 12:50:57 PM 30.2903 -81.4972 348° North 446 513 32,900 -50 Descending Jacksonville Center
Mon 12:51:57 PM 30.4242 -81.5339 347° North 454 522 32,900  Level Jacksonville Center
Mon 12:52:57 PM 30.5456 -81.5658 347° North 443 510 32,900  Level Jacksonville Center
Mon 12:53:57 PM 30.6672 -81.6006 346° North 443 510 32,900  Level Jacksonville Center
Mon 12:54:57 PM 30.7886 -81.6328 347° North 443 510 32,900  Level Jacksonville Center
Mon 12:55:57 PM 30.9100 -81.6697 345° North 443 510 32,900 50 Level Jacksonville Center
Mon 12:56:57 PM 31.0314 -81.7022 347° North 443 510 33,000  Climbing Jacksonville Center
Mon 12:57:57 PM 31.1508 -81.7372 346° North 438 504 32,900 -50 Descending Jacksonville Center
Mon 12:58:57 PM 31.2700 -81.7697 347° North 437 503 32,900 50 Level Jacksonville Center
Mon 12:59:57 PM 31.3894 -81.7997 348° North 437 503 33,000 50 Climbing Jacksonville Center
Mon 01:00:57 PM 31.4981 -81.8303 347° North 437 503 33,000  Level Jacksonville Center
Mon 01:01:57 PM 31.6322 -81.8703 346° North 434 499 33,000  Level Jacksonville Center
Mon 01:02:57 PM 31.7389 -81.8983 347° North 434 499 33,000  Level Jacksonville Center
Mon 01:03:57 PM 31.8706 -81.9386 345° North 434 499 33,000  Level Jacksonville Center
Mon 01:04:57 PM 31.9919 -81.9692 348° North 434 499 33,000  Level Jacksonville Center
Mon 01:07:15 PM 32.2767 -82.0000 355° North 440 506 33,000  Level Atlanta Center
Mon 01:08:15 PM 32.4019 -82.0142 355° North 447 514 33,000  Level Atlanta Center
Mon 01:09:15 PM 32.5275 -82.0286 354° North 447 514 33,000  Level Atlanta Center
Mon 01:10:15 PM 32.6531 -82.0406 355° North 447 514 33,000  Level Atlanta Center
Mon 01:11:15 PM 32.7700 -82.0550 354° North 452 520 33,000  Level Atlanta Center
Mon 01:12:15 PM 32.8956 -82.0697 354° North 452 520 33,000  Level Atlanta Center
Mon 01:13:15 PM 33.0208 -82.0817 355° North 452 520 33,000  Level Atlanta Center
Mon 01:14:15 PM 33.1486 -82.0986 354° North 452 520 33,000 -50 Level Atlanta Center
Mon 01:15:15 PM 33.2719 -82.1108 355° North 452 520 32,900 -50 Descending Atlanta Center
Mon 01:16:15 PM 33.3975 -82.1253 355° North 452 520 32,900  Level Atlanta Center
Mon 01:17:15 PM 33.5228 -82.1400 354° North 447 514 32,900 50 Level Atlanta Center
Mon 01:18:15 PM 33.6503 -82.1547 355° North 447 514 33,000 -100 Climbing Atlanta Center
Mon 01:19:15 PM 33.7797 -82.1494 North 447 514 32,700 -950 Descending Atlanta Center
Mon 01:20:15 PM 33.9253 -82.1236 North 458 527 31,100 -1,300 Descending Atlanta Center
Mon 01:21:15 PM 34.0522 -82.1006 North 472 543 30,100 -950 Descending Atlanta Center
Mon 01:22:15 PM 34.1814 -82.0778 North 466 536 29,200 -550 Descending Atlanta Center
Mon 01:23:15 PM 34.3064 -82.0572 North 461 531 29,000 -100 Descending Atlanta Center
Mon 01:24:15 PM 34.4333 -82.0339 North 461 531 29,000  Level Atlanta Center
Mon 01:25:15 PM 34.5603 -82.0108 North 461 531 29,000  Level Atlanta Center
Mon 01:26:15 PM 34.6850 -81.9903 North 461 531 29,000  Level Atlanta Center
Mon 01:27:15 PM 34.8139 -81.9667 North 461 531 29,000  Level Atlanta Center
Mon 01:28:15 PM 34.9286 -81.9511 North 461 531 29,000  Level Atlanta Center
Mon 01:29:15 PM 35.0556 -81.9303 North 461 531 29,000  Level Atlanta Center
Mon 01:30:15 PM 35.1825 -81.9244 North 461 531 29,000  Level Atlanta Center
Mon 01:31:15 PM 35.3119 -81.9186 North 461 531 29,000  Level Atlanta Center
Mon 01:32:15 PM 35.4475 -81.9125 North 456 525 29,000  Level Atlanta Center
Mon 01:33:15 PM 35.5767 -81.9067 North 456 525 29,000  Level Atlanta Center
Mon 01:34:15 PM 35.7017 -81.9008 North 456 525 29,000  Level Atlanta Center
Mon 01:35:15 PM 35.8308 -81.8925 North 451 519 29,000  Level Atlanta Center
Mon 01:36:15 PM 35.9558 -81.8864 North 456 525 29,000  Level Atlanta Center
Mon 01:37:15 PM 36.0811 -81.8806 North 456 525 29,000  Level Atlanta Center
Mon 01:38:15 PM 36.2103 -81.8744 North 456 525 29,000  Level Atlanta Center
Mon 01:39:15 PM 36.3394 -81.8658 North 456 525 29,000  Level Atlanta Center
Mon 01:40:47 PM 36.5144 -81.8586 North 457 526 29,000  Level Indianapolis Center
Mon 01:41:49 PM 36.6636 -81.8511 North 460 529 29,000  Level Indianapolis Center
Mon 01:42:50 PM 36.7903 -81.8456 North 456 525 29,000 -49 Level Indianapolis Center
Mon 01:43:52 PM 36.9192 -81.8389 North 459 528 28,900  Descending Indianapolis Center
Mon 01:44:54 PM 37.0464 -81.8328 North 459 528 29,000 49 Climbing Indianapolis Center
Mon 01:45:55 PM 37.1747 -81.8267 North 460 529 29,000  Level Indianapolis Center
Mon 01:46:57 PM 37.3019 -81.8217 North 460 529 29,000  Level Indianapolis Center
Mon 01:47:58 PM 37.4511 -81.8142 North 460 529 29,000  Level Indianapolis Center
Mon 01:49:00 PM 37.5792 -81.8078 North 461 531 29,000  Level Indianapolis Center
Mon 01:50:02 PM 37.7058 -81.8014 North 457 526 29,000  Level Indianapolis Center
Mon 01:51:03 PM 37.8369 -81.7953 North 465 535 29,000  Level Indianapolis Center
Mon 01:52:05 PM 37.9628 -81.7892 North 466 536 29,000  Level Indianapolis Center
Mon 01:53:06 PM 38.0925 -81.7831 North 466 536 29,000  Level Indianapolis Center
Mon 01:54:08 PM 38.2217 -81.7756 North 462 532 29,000  Level Indianapolis Center
Mon 01:55:09 PM 38.3511 -81.7717 North 463 533 29,000  Level Indianapolis Center
Mon 01:56:11 PM 38.5014 -81.7950 353° North 448 516 29,000 -49 Level Indianapolis Center
Mon 01:57:12 PM 38.6281 -81.8158 353° North 452 520 28,900  Descending Indianapolis Center
Mon 01:58:14 PM 38.7558 -81.8372 353° North 453 521 29,000 48 Climbing Indianapolis Center
Mon 01:59:16 PM 38.8831 -81.8583 353° North 454 522 29,000  Level Indianapolis Center
Mon 02:00:17 PM 39.0092 -81.8797 352° North 453 521 29,000  Level Indianapolis Center
Mon 02:01:19 PM 39.1350 -81.9008 353° North 454 522 29,000  Level Indianapolis Center
Mon 02:02:20 PM 39.2603 -81.9208 353° North 452 520 29,000 -49 Level Indianapolis Center
Mon 02:03:22 PM 39.3861 -81.9425 352° North 454 522 28,900  Descending Indianapolis Center
Mon 02:04:23 PM 39.5119 -81.9650 352° North 456 525 29,000 -439 Climbing Indianapolis Center
Mon 02:05:25 PM 39.6406 -81.9856 353° North 463 533 28,000 -1,610 Descending Indianapolis Center
Mon 02:06:26 PM 39.7681 -82.0075 352° North 462 532 25,700 -1,951 Descending Indianapolis Center
Mon 02:07:28 PM 39.9214 -82.0328 353° North 464 534 24,000 -823 Descending Indianapolis Center
Mon 02:08:30 PM 40.0481 -82.0553 352° North 462 532 24,000 -341 Level Indianapolis Center
Mon 02:09:31 PM 40.1728 -82.0761 353° North 456 525 23,300 -2,439 Descending Indianapolis Center
Mon 02:10:33 PM 40.3058 -82.0994 352° North 449 517 19,000 -3,194 Descending Indianapolis Center
Mon 02:11:35 PM 40.4322 -82.1211 353° North 451 519 16,700 -1,902 Descending Indianapolis Center
Mon 02:12:36 PM 40.5417 -82.0439 28° Northeast 449 517 15,100 -1,317 Descending Indianapolis Center
Mon 02:13:38 PM 40.6336 -81.9514 37° Northeast 418 481 14,000 -1,385 Descending Indianapolis Center
Mon 02:14:20 PM 40.6964 -81.8928 35° Northeast 392 451 12,700 -1,674 Descending Cleveland Center
Mon 02:14:21 PM 40.6925 -81.8931 183° South 399 459 12,800 -1,855 Climbing Cleveland Center
Mon 02:15:15 PM 40.7753 -81.8114 37° Northeast 379 436 11,000 -1,742 Descending Cleveland Center
Mon 02:15:23 PM 40.7767 -81.8100 37° Northeast 380 437 11,000 -759 Level Cleveland Center
Mon 02:16:34 PM 40.8772 -81.7089 37° Northeast 358 412 10,000 -484 Descending Cleveland Center
Mon 02:17:27 PM 40.9458 -81.6411 37° Northeast 339 390 10,000  Level Cleveland Center
Mon 02:17:34 PM 40.9528 -81.6381 18° North 336 387 10,000  Level Cleveland Center
Mon 02:18:29 PM 41.0317 -81.6506 353° North 300 345 10,000 -55 Level Cleveland Center
Mon 02:19:23 PM 41.1092 -81.6739 347° North 306 352 9,900 -194 Descending Cleveland Center
Mon 02:19:31 PM 41.1144 -81.6756 347° North 305 351 9,800 -1,279 Descending Cleveland Center
Mon 02:20:24 PM 41.1908 -81.7008 346° North 304 350 8,600 -1,355 Descending Cleveland Center
Mon 02:20:33 PM 41.1981 -81.7022 352° North 304 350 8,400 -676 Descending Cleveland Center
Mon 02:21:35 PM 41.2819 -81.7286 347° North 300 345 7,800 -677 Descending Cleveland Center
Mon 02:22:37 PM 41.3661 -81.7514 349° North 297 342 7,000 -432 Descending Cleveland Center
Mon 02:23:26 PM 41.4178 -81.6983 38° Northeast 280 322 7,000 -95 Level Cleveland Center
Mon 02:23:40 PM 41.4261 -81.6858 48° Northeast 277 319 6,900 -789 Descending Cleveland Center
Mon 02:24:42 PM 41.4733 -81.6139 49° Northeast 259 298 6,000 -1,065 Descending Cleveland Center
Mon 02:25:27 PM 41.5172 -81.5719 36° Northeast 233 268 5,000 -1,161 Descending Cleveland Center
Mon 02:25:44 PM 41.5253 -81.5767 336° Northwest 232 267 4,800 -787 Descending Cleveland Center
Mon 02:26:28 PM 41.5464 -81.6211 302° West 161 185 4,200 -677 Descending Cleveland Center
Mon 02:26:46 PM 41.5444 -81.6286 251° West 192 221 4,100 -250 Descending Cleveland Center
Mon 02:27:16 PM 41.5325 -81.6608 244° Southwest 162 186 4,000 -97 Descending Cleveland Center
Mon 02:27:48 PM 41.5181 -81.6858 232° Southwest 163 188 4,000 -358 Level Cleveland Center
Mon 02:28:23 PM 41.5006 -81.7117 228° Southwest 153 176 3,600 -774 Descending Cleveland Center
Mon 02:28:50 PM 41.4906 -81.7278 230° Southwest 155 178 3,200 -885 Descending Cleveland Center
Mon 02:29:24 PM 41.4781 -81.7500 233° Southwest 131 151 2,700 -774 Descending Cleveland Center
Mon 02:29:52 PM 41.4678 -81.7656 229° Southwest 140 161 2,400 -590 Descending Cleveland Center
Mon 02:30:25 PM 41.4536 -81.7878 230° Southwest 132 152 2,100 -581 Descending Cleveland Center
Mon 02:30:54 PM 41.4444 -81.8031 231° Southwest 134 154 1,800 -689 Descending Cleveland Center
Mon 02:31:26 PM 41.4314 -81.8233 229° Southwest 135 155 1,400 -774 Descending Cleveland Center
Mon 02:31:56 PM 41.4203 -81.8406 229° Southwest 133 153 1,000 -800 Descending Cleveland Center

Login

Don't have an account? Register now (free) for customized features, flight alerts, and more!